sensor_id;sensor_type;location;lat;lon;timestamp;P1;durP1;ratioP1;P2;durP2;ratioP2
6580;SDS011;3324;50.796;7.228;2023-06-14T00:02:12;11.10;;;10.50;;
6580;SDS011;3324;50.796;7.228;2023-06-14T00:04:37;10.50;;;10.10;;
6580;SDS011;3324;50.796;7.228;2023-06-14T00:07:04;10.60;;;10.20;;
6580;SDS011;3324;50.796;7.228;2023-06-14T00:09:33;10.80;;;10.40;;
6580;SDS011;3324;50.796;7.228;2023-06-14T00:11:59;10.30;;;10.00;;
6580;SDS011;3324;50.796;7.228;2023-06-14T00:14:25;11.00;;;10.40;;
6580;SDS011;3324;50.796;7.228;2023-06-14T00:16:50;10.40;;;10.00;;
6580;SDS011;3324;50.796;7.228;2023-06-14T00:19:17;10.35;;;9.95;;
6580;SDS011;3324;50.796;7.228;2023-06-14T00:21:44;10.70;;;10.20;;
6580;SDS011;3324;50.796;7.228;2023-06-14T00:24:10;10.45;;;10.05;;
6580;SDS011;3324;50.796;7.228;2023-06-14T00:26:36;10.00;;;9.70;;
6580;SDS011;3324;50.796;7.228;2023-06-14T00:29:02;9.90;;;9.60;;
6580;SDS011;3324;50.796;7.228;2023-06-14T00:31:27;11.00;;;10.40;;
6580;SDS011;3324;50.796;7.228;2023-06-14T00:33:53;10.17;;;9.87;;
6580;SDS011;3324;50.796;7.228;2023-06-14T00:36:19;10.20;;;9.90;;
6580;SDS011;3324;50.796;7.228;2023-06-14T00:38:44;9.95;;;9.65;;
6580;SDS011;3324;50.796;7.228;2023-06-14T00:41:10;10.70;;;10.10;;
6580;SDS011;3324;50.796;7.228;2023-06-14T00:43:36;10.00;;;9.70;;
6580;SDS011;3324;50.796;7.228;2023-06-14T00:46:01;10.17;;;9.87;;
6580;SDS011;3324;50.796;7.228;2023-06-14T00:48:27;10.90;;;10.30;;
6580;SDS011;3324;50.796;7.228;2023-06-14T00:50:53;10.60;;;10.10;;
6580;SDS011;3324;50.796;7.228;2023-06-14T00:53:20;10.57;;;10.07;;
6580;SDS011;3324;50.796;7.228;2023-06-14T00:55:48;10.00;;;9.70;;
6580;SDS011;3324;50.796;7.228;2023-06-14T00:58:13;10.50;;;10.00;;
6580;SDS011;3324;50.796;7.228;2023-06-14T01:00:39;10.50;;;10.00;;
6580;SDS011;3324;50.796;7.228;2023-06-14T01:03:05;9.88;;;9.57;;
6580;SDS011;3324;50.796;7.228;2023-06-14T01:05:31;9.70;;;9.40;;
6580;SDS011;3324;50.796;7.228;2023-06-14T01:10:29;10.27;;;9.77;;
6580;SDS011;3324;50.796;7.228;2023-06-14T01:16:24;10.20;;;9.70;;
6580;SDS011;3324;50.796;7.228;2023-06-14T01:18:51;10.10;;;9.60;;
6580;SDS011;3324;50.796;7.228;2023-06-14T01:21:23;9.30;;;9.10;;
6580;SDS011;3324;50.796;7.228;2023-06-14T01:23:50;9.70;;;9.30;;
6580;SDS011;3324;50.796;7.228;2023-06-14T01:26:20;9.90;;;9.40;;
6580;SDS011;3324;50.796;7.228;2023-06-14T01:28:49;10.27;;;9.77;;
6580;SDS011;3324;50.796;7.228;2023-06-14T01:31:18;9.40;;;9.20;;
6580;SDS011;3324;50.796;7.228;2023-06-14T01:33:46;9.60;;;9.30;;
6580;SDS011;3324;50.796;7.228;2023-06-14T01:36:15;9.30;;;9.10;;
6580;SDS011;3324;50.796;7.228;2023-06-14T01:38:45;9.50;;;9.20;;
6580;SDS011;3324;50.796;7.228;2023-06-14T01:41:14;9.50;;;9.20;;
6580;SDS011;3324;50.796;7.228;2023-06-14T01:43:41;9.40;;;9.20;;
6580;SDS011;3324;50.796;7.228;2023-06-14T01:46:08;9.55;;;9.30;;
6580;SDS011;3324;50.796;7.228;2023-06-14T01:48:34;9.30;;;9.10;;
6580;SDS011;3324;50.796;7.228;2023-06-14T01:51:00;8.95;;;8.75;;
6580;SDS011;3324;50.796;7.228;2023-06-14T01:53:26;8.90;;;8.70;;
6580;SDS011;3324;50.796;7.228;2023-06-14T01:55:51;9.70;;;9.30;;
6580;SDS011;3324;50.796;7.228;2023-06-14T01:58:19;9.00;;;8.80;;
6580;SDS011;3324;50.796;7.228;2023-06-14T02:00:44;9.30;;;8.90;;
6580;SDS011;3324;50.796;7.228;2023-06-14T02:03:10;8.50;;;8.30;;
6580;SDS011;3324;50.796;7.228;2023-06-14T02:05:37;8.00;;;7.90;;
6580;SDS011;3324;50.796;7.228;2023-06-14T02:08:04;9.00;;;8.60;;
6580;SDS011;3324;50.796;7.228;2023-06-14T02:10:30;8.80;;;8.50;;
6580;SDS011;3324;50.796;7.228;2023-06-14T02:12:56;8.10;;;8.00;;
6580;SDS011;3324;50.796;7.228;2023-06-14T02:15:21;7.90;;;7.80;;
6580;SDS011;3324;50.796;7.228;2023-06-14T02:17:48;8.00;;;7.80;;
6580;SDS011;3324;50.796;7.228;2023-06-14T02:20:17;8.90;;;8.50;;
6580;SDS011;3324;50.796;7.228;2023-06-14T02:22:43;10.00;;;9.60;;
6580;SDS011;3324;50.796;7.228;2023-06-14T02:25:08;9.40;;;9.20;;
6580;SDS011;3324;50.796;7.228;2023-06-14T02:30:00;10.10;;;9.80;;
6580;SDS011;3324;50.796;7.228;2023-06-14T02:32:26;9.60;;;9.40;;
6580;SDS011;3324;50.796;7.228;2023-06-14T02:34:52;10.40;;;9.90;;
6580;SDS011;3324;50.796;7.228;2023-06-14T02:37:18;10.20;;;9.70;;
6580;SDS011;3324;50.796;7.228;2023-06-14T02:39:44;9.50;;;9.30;;
6580;SDS011;3324;50.796;7.228;2023-06-14T02:42:10;10.10;;;9.80;;
6580;SDS011;3324;50.796;7.228;2023-06-14T02:44:36;9.50;;;9.30;;
6580;SDS011;3324;50.796;7.228;2023-06-14T02:47:01;9.70;;;9.40;;
6580;SDS011;3324;50.796;7.228;2023-06-14T02:49:27;10.40;;;9.90;;
6580;SDS011;3324;50.796;7.228;2023-06-14T02:51:54;10.40;;;9.90;;
6580;SDS011;3324;50.796;7.228;2023-06-14T02:54:20;10.40;;;9.90;;
6580;SDS011;3324;50.796;7.228;2023-06-14T02:56:45;9.70;;;9.40;;
6580;SDS011;3324;50.796;7.228;2023-06-14T02:59:11;9.00;;;8.80;;
6580;SDS011;3324;50.796;7.228;2023-06-14T03:01:38;9.50;;;9.30;;
6580;SDS011;3324;50.796;7.228;2023-06-14T03:04:09;10.07;;;9.67;;
6580;SDS011;3324;50.796;7.228;2023-06-14T03:06:35;9.50;;;9.30;;
6580;SDS011;3324;50.796;7.228;2023-06-14T03:09:01;9.70;;;9.50;;
6580;SDS011;3324;50.796;7.228;2023-06-14T03:11:29;9.80;;;9.50;;
6580;SDS011;3324;50.796;7.228;2023-06-14T03:13:55;10.70;;;10.20;;
6580;SDS011;3324;50.796;7.228;2023-06-14T03:16:21;10.40;;;9.90;;
6580;SDS011;3324;50.796;7.228;2023-06-14T03:18:50;9.50;;;9.30;;
6580;SDS011;3324;50.796;7.228;2023-06-14T03:21:16;9.50;;;9.30;;
6580;SDS011;3324;50.796;7.228;2023-06-14T03:23:43;9.90;;;9.60;;
6580;SDS011;3324;50.796;7.228;2023-06-14T03:26:09;9.60;;;9.40;;
6580;SDS011;3324;50.796;7.228;2023-06-14T03:28:37;9.80;;;9.50;;
6580;SDS011;3324;50.796;7.228;2023-06-14T03:31:03;10.20;;;9.70;;
6580;SDS011;3324;50.796;7.228;2023-06-14T03:33:29;9.80;;;9.50;;
6580;SDS011;3324;50.796;7.228;2023-06-14T03:35:54;9.80;;;9.50;;
6580;SDS011;3324;50.796;7.228;2023-06-14T03:38:21;9.80;;;9.50;;
6580;SDS011;3324;50.796;7.228;2023-06-14T03:40:46;9.50;;;9.30;;
6580;SDS011;3324;50.796;7.228;2023-06-14T03:43:12;10.23;;;9.73;;
6580;SDS011;3324;50.796;7.228;2023-06-14T03:45:38;9.80;;;9.50;;
6580;SDS011;3324;50.796;7.228;2023-06-14T03:48:03;9.50;;;9.30;;
6580;SDS011;3324;50.796;7.228;2023-06-14T03:50:31;9.50;;;9.30;;
6580;SDS011;3324;50.796;7.228;2023-06-14T03:52:57;9.90;;;9.60;;
6580;SDS011;3324;50.796;7.228;2023-06-14T03:55:23;9.73;;;9.43;;
6580;SDS011;3324;50.796;7.228;2023-06-14T03:57:50;10.00;;;9.70;;
6580;SDS011;3324;50.796;7.228;2023-06-14T04:00:16;9.70;;;9.40;;
6580;SDS011;3324;50.796;7.228;2023-06-14T04:02:43;9.73;;;9.43;;
6580;SDS011;3324;50.796;7.228;2023-06-14T04:05:09;9.73;;;9.43;;
6580;SDS011;3324;50.796;7.228;2023-06-14T04:07:35;9.85;;;9.55;;
6580;SDS011;3324;50.796;7.228;2023-06-14T04:10:10;10.03;;;9.63;;
6580;SDS011;3324;50.796;7.228;2023-06-14T04:12:36;9.70;;;9.40;;
6580;SDS011;3324;50.796;7.228;2023-06-14T04:15:02;10.60;;;10.10;;
6580;SDS011;3324;50.796;7.228;2023-06-14T04:20:50;9.88;;;9.57;;
6580;SDS011;3324;50.796;7.228;2023-06-14T04:23:16;10.00;;;9.70;;
6580;SDS011;3324;50.796;7.228;2023-06-14T04:25:46;10.10;;;9.80;;
6580;SDS011;3324;50.796;7.228;2023-06-14T04:28:12;10.10;;;9.80;;
6580;SDS011;3324;50.796;7.228;2023-06-14T04:30:39;10.25;;;9.95;;
6580;SDS011;3324;50.796;7.228;2023-06-14T04:33:05;10.00;;;9.70;;
6580;SDS011;3324;50.796;7.228;2023-06-14T04:35:31;9.90;;;9.60;;
6580;SDS011;3324;50.796;7.228;2023-06-14T04:37:58;10.10;;;9.80;;
6580;SDS011;3324;50.796;7.228;2023-06-14T04:40:24;11.00;;;10.40;;
6580;SDS011;3324;50.796;7.228;2023-06-14T04:42:50;11.10;;;10.50;;
6580;SDS011;3324;50.796;7.228;2023-06-14T04:45:16;10.40;;;10.00;;
6580;SDS011;3324;50.796;7.228;2023-06-14T04:47:42;10.50;;;10.10;;
6580;SDS011;3324;50.796;7.228;2023-06-14T04:50:09;10.70;;;10.30;;
6580;SDS011;3324;50.796;7.228;2023-06-14T04:52:36;11.50;;;10.90;;
6580;SDS011;3324;50.796;7.228;2023-06-14T04:55:02;10.40;;;10.00;;
6580;SDS011;3324;50.796;7.228;2023-06-14T04:57:28;10.70;;;10.30;;
6580;SDS011;3324;50.796;7.228;2023-06-14T04:59:54;10.65;;;10.25;;
6580;SDS011;3324;50.796;7.228;2023-06-14T05:02:23;10.60;;;10.20;;
6580;SDS011;3324;50.796;7.228;2023-06-14T05:04:49;10.30;;;9.90;;
6580;SDS011;3324;50.796;7.228;2023-06-14T05:07:15;10.80;;;10.40;;
6580;SDS011;3324;50.796;7.228;2023-06-14T05:09:41;11.32;;;10.73;;
6580;SDS011;3324;50.796;7.228;2023-06-14T05:12:07;10.85;;;10.45;;
6580;SDS011;3324;50.796;7.228;2023-06-14T05:14:33;10.90;;;10.50;;
6580;SDS011;3324;50.796;7.228;2023-06-14T05:16:59;10.85;;;10.45;;
6580;SDS011;3324;50.796;7.228;2023-06-14T05:19:25;10.15;;;9.85;;
6580;SDS011;3324;50.796;7.228;2023-06-14T05:21:51;11.40;;;10.80;;
6580;SDS011;3324;50.796;7.228;2023-06-14T05:24:18;10.90;;;10.50;;
6580;SDS011;3324;50.796;7.228;2023-06-14T05:26:43;11.40;;;10.80;;
6580;SDS011;3324;50.796;7.228;2023-06-14T05:29:09;10.90;;;10.50;;
6580;SDS011;3324;50.796;7.228;2023-06-14T05:31:35;10.52;;;10.13;;
6580;SDS011;3324;50.796;7.228;2023-06-14T05:34:00;11.57;;;10.88;;
6580;SDS011;3324;50.796;7.228;2023-06-14T05:36:26;10.90;;;10.50;;
6580;SDS011;3324;50.796;7.228;2023-06-14T05:38:53;11.10;;;10.60;;
6580;SDS011;3324;50.796;7.228;2023-06-14T05:41:23;11.30;;;10.80;;
6580;SDS011;3324;50.796;7.228;2023-06-14T05:43:53;11.40;;;10.90;;
6580;SDS011;3324;50.796;7.228;2023-06-14T05:46:19;11.80;;;11.10;;
6580;SDS011;3324;50.796;7.228;2023-06-14T05:48:47;11.30;;;10.80;;
6580;SDS011;3324;50.796;7.228;2023-06-14T05:51:13;11.20;;;10.70;;
6580;SDS011;3324;50.796;7.228;2023-06-14T05:53:39;11.30;;;10.80;;
6580;SDS011;3324;50.796;7.228;2023-06-14T05:56:05;11.40;;;10.70;;
6580;SDS011;3324;50.796;7.228;2023-06-14T05:58:31;11.30;;;10.70;;
6580;SDS011;3324;50.796;7.228;2023-06-14T06:00:56;11.20;;;10.70;;
6580;SDS011;3324;50.796;7.228;2023-06-14T06:03:22;11.20;;;10.70;;
6580;SDS011;3324;50.796;7.228;2023-06-14T06:05:48;12.00;;;11.20;;
6580;SDS011;3324;50.796;7.228;2023-06-14T06:08:13;11.40;;;10.90;;
6580;SDS011;3324;50.796;7.228;2023-06-14T06:10:41;12.10;;;11.30;;
6580;SDS011;3324;50.796;7.228;2023-06-14T06:13:07;11.50;;;11.00;;
6580;SDS011;3324;50.796;7.228;2023-06-14T06:15:32;10.90;;;10.40;;
6580;SDS011;3324;50.796;7.228;2023-06-14T06:17:58;11.40;;;10.90;;
6580;SDS011;3324;50.796;7.228;2023-06-14T06:20:24;12.40;;;11.60;;
6580;SDS011;3324;50.796;7.228;2023-06-14T06:22:53;11.90;;;11.30;;
6580;SDS011;3324;50.796;7.228;2023-06-14T06:25:19;11.80;;;11.20;;
6580;SDS011;3324;50.796;7.228;2023-06-14T06:31:07;12.70;;;11.90;;
6580;SDS011;3324;50.796;7.228;2023-06-14T06:33:33;11.93;;;11.32;;
6580;SDS011;3324;50.796;7.228;2023-06-14T06:35:58;11.60;;;11.00;;
6580;SDS011;3324;50.796;7.228;2023-06-14T06:38:24;12.50;;;11.70;;
6580;SDS011;3324;50.796;7.228;2023-06-14T06:40:50;11.65;;;11.05;;
6580;SDS011;3324;50.796;7.228;2023-06-14T06:43:15;12.20;;;11.60;;
6580;SDS011;3324;50.796;7.228;2023-06-14T06:45:42;11.30;;;10.80;;
6580;SDS011;3324;50.796;7.228;2023-06-14T06:48:08;11.80;;;11.20;;
6580;SDS011;3324;50.796;7.228;2023-06-14T06:50:36;11.60;;;11.00;;
6580;SDS011;3324;50.796;7.228;2023-06-14T06:53:02;11.80;;;11.20;;
6580;SDS011;3324;50.796;7.228;2023-06-14T06:55:28;11.90;;;11.30;;
6580;SDS011;3324;50.796;7.228;2023-06-14T06:57:53;13.30;;;12.40;;
6580;SDS011;3324;50.796;7.228;2023-06-14T07:00:19;12.18;;;11.57;;
6580;SDS011;3324;50.796;7.228;2023-06-14T07:02:46;12.00;;;11.40;;
6580;SDS011;3324;50.796;7.228;2023-06-14T07:05:11;12.60;;;11.90;;
6580;SDS011;3324;50.796;7.228;2023-06-14T07:07:37;12.90;;;12.00;;
6580;SDS011;3324;50.796;7.228;2023-06-14T07:10:03;11.90;;;11.30;;
6580;SDS011;3324;50.796;7.228;2023-06-14T07:12:30;11.80;;;11.20;;
6580;SDS011;3324;50.796;7.228;2023-06-14T07:14:58;11.65;;;11.05;;
6580;SDS011;3324;50.796;7.228;2023-06-14T07:17:24;11.50;;;10.90;;
6580;SDS011;3324;50.796;7.228;2023-06-14T07:19:50;13.00;;;12.10;;
6580;SDS011;3324;50.796;7.228;2023-06-14T07:22:16;12.10;;;11.50;;
6580;SDS011;3324;50.796;7.228;2023-06-14T07:24:42;12.50;;;11.80;;
6580;SDS011;3324;50.796;7.228;2023-06-14T07:27:08;12.40;;;11.70;;
6580;SDS011;3324;50.796;7.228;2023-06-14T07:29:34;13.20;;;12.30;;
6580;SDS011;3324;50.796;7.228;2023-06-14T07:31:59;13.90;;;12.80;;
6580;SDS011;3324;50.796;7.228;2023-06-14T07:34:25;12.75;;;12.05;;
6580;SDS011;3324;50.796;7.228;2023-06-14T07:36:52;12.20;;;11.60;;
6580;SDS011;3324;50.796;7.228;2023-06-14T07:39:19;12.45;;;11.75;;
6580;SDS011;3324;50.796;7.228;2023-06-14T07:41:44;12.85;;;12.15;;
6580;SDS011;3324;50.796;7.228;2023-06-14T07:44:10;14.00;;;13.00;;
6580;SDS011;3324;50.796;7.228;2023-06-14T07:46:37;13.90;;;12.90;;
6580;SDS011;3324;50.796;7.228;2023-06-14T07:49:03;13.00;;;12.30;;
6580;SDS011;3324;50.796;7.228;2023-06-14T07:51:29;13.20;;;12.40;;
6580;SDS011;3324;50.796;7.228;2023-06-14T07:53:54;13.30;;;12.50;;
6580;SDS011;3324;50.796;7.228;2023-06-14T07:56:20;14.05;;;13.05;;
6580;SDS011;3324;50.796;7.228;2023-06-14T07:58:46;13.50;;;12.70;;
6580;SDS011;3324;50.796;7.228;2023-06-14T08:01:11;13.50;;;12.70;;
6580;SDS011;3324;50.796;7.228;2023-06-14T08:03:39;13.40;;;12.60;;
6580;SDS011;3324;50.796;7.228;2023-06-14T08:06:05;13.30;;;12.50;;
6580;SDS011;3324;50.796;7.228;2023-06-14T08:08:31;12.70;;;12.00;;
6580;SDS011;3324;50.796;7.228;2023-06-14T08:10:57;13.60;;;12.70;;
6580;SDS011;3324;50.796;7.228;2023-06-14T08:13:23;13.50;;;12.70;;
6580;SDS011;3324;50.796;7.228;2023-06-14T08:15:48;13.20;;;12.40;;
6580;SDS011;3324;50.796;7.228;2023-06-14T08:18:14;14.00;;;13.00;;
6580;SDS011;3324;50.796;7.228;2023-06-14T08:20:39;13.70;;;12.90;;
6580;SDS011;3324;50.796;7.228;2023-06-14T08:23:05;13.70;;;12.90;;
6580;SDS011;3324;50.796;7.228;2023-06-14T08:25:31;14.25;;;13.25;;
6580;SDS011;3324;50.796;7.228;2023-06-14T08:27:56;13.85;;;13.05;;
6580;SDS011;3324;50.796;7.228;2023-06-14T08:30:22;14.85;;;13.75;;
6580;SDS011;3324;50.796;7.228;2023-06-14T08:32:48;14.40;;;13.50;;
6580;SDS011;3324;50.796;7.228;2023-06-14T08:35:13;13.00;;;12.20;;
6580;SDS011;3324;50.796;7.228;2023-06-14T08:37:42;14.85;;;13.75;;
6580;SDS011;3324;50.796;7.228;2023-06-14T08:40:20;13.10;;;12.40;;
6580;SDS011;3324;50.796;7.228;2023-06-14T08:42:48;15.95;;;14.75;;
6580;SDS011;3324;50.796;7.228;2023-06-14T08:45:16;14.67;;;13.77;;
6580;SDS011;3324;50.796;7.228;2023-06-14T08:47:42;14.50;;;13.60;;
6580;SDS011;3324;50.796;7.228;2023-06-14T08:50:10;14.68;;;13.57;;
6580;SDS011;3324;50.796;7.228;2023-06-14T08:52:37;15.50;;;14.30;;
6580;SDS011;3324;50.796;7.228;2023-06-14T08:55:15;14.30;;;13.40;;
6580;SDS011;3324;50.796;7.228;2023-06-14T08:57:42;14.90;;;13.80;;
6580;SDS011;3324;50.796;7.228;2023-06-14T09:00:10;13.75;;;12.95;;
6580;SDS011;3324;50.796;7.228;2023-06-14T09:02:38;14.53;;;13.63;;
6580;SDS011;3324;50.796;7.228;2023-06-14T09:05:08;16.30;;;15.00;;
6580;SDS011;3324;50.796;7.228;2023-06-14T09:07:38;16.15;;;14.85;;
6580;SDS011;3324;50.796;7.228;2023-06-14T09:10:14;15.50;;;14.50;;
6580;SDS011;3324;50.796;7.228;2023-06-14T09:12:40;15.60;;;14.40;;
6580;SDS011;3324;50.796;7.228;2023-06-14T09:15:06;15.43;;;14.43;;
6580;SDS011;3324;50.796;7.228;2023-06-14T09:17:33;16.40;;;15.10;;
6580;SDS011;3324;50.796;7.228;2023-06-14T09:20:00;16.08;;;14.80;;
6580;SDS011;3324;50.796;7.228;2023-06-14T09:22:34;15.30;;;14.30;;
6580;SDS011;3324;50.796;7.228;2023-06-14T09:25:00;16.47;;;15.17;;
6580;SDS011;3324;50.796;7.228;2023-06-14T09:27:26;15.67;;;14.57;;
6580;SDS011;3324;50.796;7.228;2023-06-14T09:29:52;15.90;;;14.80;;
6580;SDS011;3324;50.796;7.228;2023-06-14T09:32:18;15.27;;;14.27;;
6580;SDS011;3324;50.796;7.228;2023-06-14T09:34:44;15.00;;;14.00;;
6580;SDS011;3324;50.796;7.228;2023-06-14T09:37:10;15.70;;;14.50;;
6580;SDS011;3324;50.796;7.228;2023-06-14T09:39:48;15.90;;;14.80;;
6580;SDS011;3324;50.796;7.228;2023-06-14T09:42:17;15.10;;;14.10;;
6580;SDS011;3324;50.796;7.228;2023-06-14T09:44:45;16.00;;;14.90;;
6580;SDS011;3324;50.796;7.228;2023-06-14T09:47:13;15.90;;;14.80;;
6580;SDS011;3324;50.796;7.228;2023-06-14T09:49:40;16.25;;;15.05;;
6580;SDS011;3324;50.796;7.228;2023-06-14T09:52:06;15.80;;;14.70;;
6580;SDS011;3324;50.796;7.228;2023-06-14T09:54:40;16.60;;;15.40;;
6580;SDS011;3324;50.796;7.228;2023-06-14T09:57:12;15.75;;;14.65;;
6580;SDS011;3324;50.796;7.228;2023-06-14T09:59:42;15.70;;;14.60;;
6580;SDS011;3324;50.796;7.228;2023-06-14T10:02:13;16.90;;;15.20;;
6580;SDS011;3324;50.796;7.228;2023-06-14T10:04:57;15.80;;;14.70;;
6580;SDS011;3324;50.796;7.228;2023-06-14T10:07:39;15.70;;;14.60;;
6580;SDS011;3324;50.796;7.228;2023-06-14T10:10:20;15.40;;;14.30;;
6580;SDS011;3324;50.796;7.228;2023-06-14T10:12:46;15.50;;;14.40;;
6580;SDS011;3324;50.796;7.228;2023-06-14T10:15:15;16.50;;;15.30;;
6580;SDS011;3324;50.796;7.228;2023-06-14T10:17:59;15.95;;;14.85;;
6580;SDS011;3324;50.796;7.228;2023-06-14T10:20:38;16.30;;;15.00;;
6580;SDS011;3324;50.796;7.228;2023-06-14T10:23:18;14.60;;;13.70;;
6580;SDS011;3324;50.796;7.228;2023-06-14T10:25:50;15.90;;;14.80;;
6580;SDS011;3324;50.796;7.228;2023-06-14T10:28:21;14.00;;;13.20;;
6580;SDS011;3324;50.796;7.228;2023-06-14T10:31:01;15.05;;;14.05;;
6580;SDS011;3324;50.796;7.228;2023-06-14T10:33:29;15.50;;;14.50;;
6580;SDS011;3324;50.796;7.228;2023-06-14T10:36:11;16.60;;;15.40;;
6580;SDS011;3324;50.796;7.228;2023-06-14T10:41:36;16.63;;;15.40;;
6580;SDS011;3324;50.796;7.228;2023-06-14T10:46:40;16.20;;;15.00;;
6580;SDS011;3324;50.796;7.228;2023-06-14T10:49:11;16.50;;;15.10;;
6580;SDS011;3324;50.796;7.228;2023-06-14T10:51:41;17.30;;;16.00;;
6580;SDS011;3324;50.796;7.228;2023-06-14T10:54:14;16.20;;;15.00;;
6580;SDS011;3324;50.796;7.228;2023-06-14T10:56:46;17.40;;;15.90;;
6580;SDS011;3324;50.796;7.228;2023-06-14T10:59:20;17.20;;;15.90;;
6580;SDS011;3324;50.796;7.228;2023-06-14T11:02:00;17.30;;;15.80;;
6580;SDS011;3324;50.796;7.228;2023-06-14T11:04:53;16.90;;;15.60;;
6580;SDS011;3324;50.796;7.228;2023-06-14T11:12:55;15.30;;;14.30;;
6580;SDS011;3324;50.796;7.228;2023-06-14T11:15:27;16.30;;;15.10;;
6580;SDS011;3324;50.796;7.228;2023-06-14T11:17:53;15.70;;;14.60;;
6580;SDS011;3324;50.796;7.228;2023-06-14T11:20:24;16.40;;;15.20;;
6580;SDS011;3324;50.796;7.228;2023-06-14T11:22:51;16.80;;;15.50;;
6580;SDS011;3324;50.796;7.228;2023-06-14T11:25:17;17.20;;;15.90;;
6580;SDS011;3324;50.796;7.228;2023-06-14T11:27:43;16.20;;;14.90;;
6580;SDS011;3324;50.796;7.228;2023-06-14T11:30:09;16.70;;;15.10;;
6580;SDS011;3324;50.796;7.228;2023-06-14T11:32:36;15.80;;;14.70;;
6580;SDS011;3324;50.796;7.228;2023-06-14T11:35:03;15.10;;;14.10;;
6580;SDS011;3324;50.796;7.228;2023-06-14T11:37:30;16.95;;;15.35;;
6580;SDS011;3324;50.796;7.228;2023-06-14T11:39:58;15.25;;;14.25;;
6580;SDS011;3324;50.796;7.228;2023-06-14T11:42:24;15.00;;;14.00;;
6580;SDS011;3324;50.796;7.228;2023-06-14T11:44:52;14.68;;;13.77;;
6580;SDS011;3324;50.796;7.228;2023-06-14T11:47:19;14.20;;;13.30;;
6580;SDS011;3324;50.796;7.228;2023-06-14T11:49:45;14.50;;;13.60;;
6580;SDS011;3324;50.796;7.228;2023-06-14T11:52:11;14.55;;;13.65;;
6580;SDS011;3324;50.796;7.228;2023-06-14T11:54:37;15.80;;;14.70;;
6580;SDS011;3324;50.796;7.228;2023-06-14T11:57:05;14.40;;;13.50;;
6580;SDS011;3324;50.796;7.228;2023-06-14T11:59:32;14.50;;;13.60;;
6580;SDS011;3324;50.796;7.228;2023-06-14T12:02:03;15.60;;;14.40;;
6580;SDS011;3324;50.796;7.228;2023-06-14T12:04:29;15.30;;;14.30;;
6580;SDS011;3324;50.796;7.228;2023-06-14T12:06:55;14.90;;;13.90;;
6580;SDS011;3324;50.796;7.228;2023-06-14T12:09:22;15.45;;;14.45;;
6580;SDS011;3324;50.796;7.228;2023-06-14T12:11:50;15.10;;;14.10;;
6580;SDS011;3324;50.796;7.228;2023-06-14T12:14:30;15.00;;;14.00;;
6580;SDS011;3324;50.796;7.228;2023-06-14T12:17:06;15.10;;;14.10;;
6580;SDS011;3324;50.796;7.228;2023-06-14T12:19:32;15.30;;;14.30;;
6580;SDS011;3324;50.796;7.228;2023-06-14T12:22:01;16.50;;;15.20;;
6580;SDS011;3324;50.796;7.228;2023-06-14T12:24:29;15.70;;;14.60;;
6580;SDS011;3324;50.796;7.228;2023-06-14T12:26:59;15.20;;;14.20;;
6580;SDS011;3324;50.796;7.228;2023-06-14T12:29:27;15.50;;;14.40;;
6580;SDS011;3324;50.796;7.228;2023-06-14T12:31:53;16.10;;;14.60;;
6580;SDS011;3324;50.796;7.228;2023-06-14T12:34:21;15.20;;;14.20;;
6580;SDS011;3324;50.796;7.228;2023-06-14T12:36:54;16.08;;;14.88;;
6580;SDS011;3324;50.796;7.228;2023-06-14T12:39:20;16.50;;;15.20;;
6580;SDS011;3324;50.796;7.228;2023-06-14T12:41:46;15.70;;;14.60;;
6580;SDS011;3324;50.796;7.228;2023-06-14T12:44:13;16.50;;;15.20;;
6580;SDS011;3324;50.796;7.228;2023-06-14T12:46:40;15.32;;;14.30;;
6580;SDS011;3324;50.796;7.228;2023-06-14T12:49:10;16.30;;;15.00;;
6580;SDS011;3324;50.796;7.228;2023-06-14T12:51:36;16.50;;;15.10;;
6580;SDS011;3324;50.796;7.228;2023-06-14T12:54:03;16.40;;;15.20;;
6580;SDS011;3324;50.796;7.228;2023-06-14T12:56:28;14.90;;;13.90;;
6580;SDS011;3324;50.796;7.228;2023-06-14T12:58:54;14.40;;;13.50;;
6580;SDS011;3324;50.796;7.228;2023-06-14T13:01:20;15.10;;;14.10;;
6580;SDS011;3324;50.796;7.228;2023-06-14T13:03:46;15.83;;;14.73;;
6580;SDS011;3324;50.796;7.228;2023-06-14T13:06:12;14.40;;;13.50;;
6580;SDS011;3324;50.796;7.228;2023-06-14T13:08:38;14.30;;;13.40;;
6580;SDS011;3324;50.796;7.228;2023-06-14T13:11:04;15.20;;;14.10;;
6580;SDS011;3324;50.796;7.228;2023-06-14T13:13:29;13.95;;;13.15;;
6580;SDS011;3324;50.796;7.228;2023-06-14T13:15:55;15.40;;;14.40;;
6580;SDS011;3324;50.796;7.228;2023-06-14T13:18:21;16.10;;;14.80;;
6580;SDS011;3324;50.796;7.228;2023-06-14T13:20:46;14.60;;;13.70;;
6580;SDS011;3324;50.796;7.228;2023-06-14T13:23:12;15.50;;;14.30;;
6580;SDS011;3324;50.796;7.228;2023-06-14T13:25:38;15.00;;;14.00;;
6580;SDS011;3324;50.796;7.228;2023-06-14T13:31:27;14.98;;;14.00;;
6580;SDS011;3324;50.796;7.228;2023-06-14T13:33:53;15.23;;;14.23;;
6580;SDS011;3324;50.796;7.228;2023-06-14T13:36:19;16.77;;;15.17;;
6580;SDS011;3324;50.796;7.228;2023-06-14T13:38:45;14.90;;;13.90;;
6580;SDS011;3324;50.796;7.228;2023-06-14T13:41:10;15.40;;;14.40;;
6580;SDS011;3324;50.796;7.228;2023-06-14T13:43:36;15.40;;;14.20;;
6580;SDS011;3324;50.796;7.228;2023-06-14T13:46:01;14.75;;;13.85;;
6580;SDS011;3324;50.796;7.228;2023-06-14T13:48:27;15.80;;;14.60;;
6580;SDS011;3324;50.796;7.228;2023-06-14T13:50:52;14.10;;;13.20;;
6580;SDS011;3324;50.796;7.228;2023-06-14T13:53:18;14.50;;;13.60;;
6580;SDS011;3324;50.796;7.228;2023-06-14T13:55:43;15.65;;;14.45;;
6580;SDS011;3324;50.796;7.228;2023-06-14T13:58:10;15.80;;;14.70;;
6580;SDS011;3324;50.796;7.228;2023-06-14T14:00:35;15.60;;;14.50;;
6580;SDS011;3324;50.796;7.228;2023-06-14T14:03:05;16.50;;;15.30;;
6580;SDS011;3324;50.796;7.228;2023-06-14T14:05:31;16.10;;;14.80;;
6580;SDS011;3324;50.796;7.228;2023-06-14T14:07:56;15.55;;;14.45;;
6580;SDS011;3324;50.796;7.228;2023-06-14T14:10:22;15.90;;;14.80;;
6580;SDS011;3324;50.796;7.228;2023-06-14T14:12:49;14.90;;;13.90;;
6580;SDS011;3324;50.796;7.228;2023-06-14T14:15:15;16.00;;;14.90;;
6580;SDS011;3324;50.796;7.228;2023-06-14T14:17:41;16.30;;;15.00;;
6580;SDS011;3324;50.796;7.228;2023-06-14T14:20:07;14.60;;;13.70;;
6580;SDS011;3324;50.796;7.228;2023-06-14T14:22:33;15.03;;;14.03;;
6580;SDS011;3324;50.796;7.228;2023-06-14T14:24:58;15.30;;;14.30;;
6580;SDS011;3324;50.796;7.228;2023-06-14T14:27:24;14.80;;;13.80;;
6580;SDS011;3324;50.796;7.228;2023-06-14T14:29:50;15.20;;;14.20;;
6580;SDS011;3324;50.796;7.228;2023-06-14T14:32:15;14.80;;;13.90;;
6580;SDS011;3324;50.796;7.228;2023-06-14T14:34:41;15.10;;;14.10;;
6580;SDS011;3324;50.796;7.228;2023-06-14T14:37:07;14.50;;;13.60;;
6580;SDS011;3324;50.796;7.228;2023-06-14T14:39:32;15.40;;;14.30;;
6580;SDS011;3324;50.796;7.228;2023-06-14T14:41:58;14.60;;;13.70;;
6580;SDS011;3324;50.796;7.228;2023-06-14T14:44:24;13.60;;;12.80;;
6580;SDS011;3324;50.796;7.228;2023-06-14T14:46:49;14.80;;;13.70;;
6580;SDS011;3324;50.796;7.228;2023-06-14T14:49:15;13.80;;;13.00;;
6580;SDS011;3324;50.796;7.228;2023-06-14T14:51:40;14.40;;;13.50;;
6580;SDS011;3324;50.796;7.228;2023-06-14T14:54:06;15.10;;;14.00;;
6580;SDS011;3324;50.796;7.228;2023-06-14T14:56:32;14.10;;;13.20;;
6580;SDS011;3324;50.796;7.228;2023-06-14T14:58:58;13.60;;;12.80;;
6580;SDS011;3324;50.796;7.228;2023-06-14T15:01:23;14.40;;;13.40;;
6580;SDS011;3324;50.796;7.228;2023-06-14T15:03:49;12.80;;;12.10;;
6580;SDS011;3324;50.796;7.228;2023-06-14T15:06:14;13.20;;;12.50;;
6580;SDS011;3324;50.796;7.228;2023-06-14T15:08:42;13.80;;;13.00;;
6580;SDS011;3324;50.796;7.228;2023-06-14T15:11:08;14.30;;;13.40;;
6580;SDS011;3324;50.796;7.228;2023-06-14T15:13:33;15.20;;;14.10;;
6580;SDS011;3324;50.796;7.228;2023-06-14T15:15:59;13.80;;;13.00;;
6580;SDS011;3324;50.796;7.228;2023-06-14T15:18:25;13.60;;;12.80;;
6580;SDS011;3324;50.796;7.228;2023-06-14T15:20:50;14.80;;;13.70;;
6580;SDS011;3324;50.796;7.228;2023-06-14T15:23:16;14.30;;;13.40;;